Moroni, UT (84646)

10:09 AM MDT on July 25, 2014 (GMT -0600)
APRSWXNET Manti UT US (MD2800) Elev 5612 ft | 39.27 °N, 111.64 °W | Change Station
Active Advisory: Fire Weather Warning

Current weather conditions updated 48 minutes ago

Partly Cloudy
Partly Cloudy
80 °F
Feels Like 80 °F
N
1
Wind Variable Wind from WSW
Gusts 0.0 mph

Today is forecast to be Cooler than yesterday. Partly cloudy with a stray thunderstorm tonight.

Today
High -- | Low -- °F
--% Chance of Precip.
Yesterday
High -- | Low -- °F
Precip. -- in
6:19 AM 8:45 PM
Waning Crescent, 1% visible
Pressure 29.88 in
Visibility 10.0 miles
Clouds Few 12000 ft
Heat Index 80 °F
Dew Point 51 °F
Humidity 37%
Rainfall -999.00 in
Snow Depth 0 in
UV 5 out of 12
Pollen 6.10 out of 12
Air Quality Not available.
Flu Activity Not available.
METAR KPUC 251553Z AUTO 12006KT 10SM FEW120 27/09 A3019 RMK AO2 SLP116 T02720089

More Conditions Fewer Conditions

Pressure 29.88 in
Visibility 10.0 miles
Clouds Few 12000 ft
Heat Index 80 °F
Dew Point 51 °F
Humidity 37%
Rainfall -999.00 in
Snow Depth 0 in
UV 5 out of 12
Pollen 6.10 out of 12
Air Quality Not available.
Flu Activity Not available.
METAR KPUC 251553Z AUTO 12006KT 10SM FEW120 27/09 A3019 RMK AO2 SLP116 T02720089

More Conditions Fewer Conditions

10-Day Weather Forecast

Almanac

Astronomy

Jul. 25, 2014 Rise Set
Actual Time 6:19 AM MDT 8:45 PM MDT
Civil Twilight 5:49 AM MDT 9:16 PM MDT
Nautical Twilight 5:11 AM MDT 9:53 PM MDT
Astronomical Twilight 4:28 AM MDT 10:35 PM MDT
Moon 5:22 AM MDT 7:45 PM MDT
Length of Visible Light 15h 27m
Length of Day
14h 25m
Tomorrow will be 1m 45s shorter.
Waning Crescent, 1% of the Moon is Illuminated
Today
Waning Crescent
Jul 26
New
Aug 3
First Quarter
Aug 10
Full
Aug 17
Last Quarter

Today's Extremes

State Highs State Lows

Community

WunderPhotos

Upload Photos

1,737,361 photos uploaded!

Nearby

Snow Depth

Station Depth Elevation
Seeley Creek 0 in 10000 ft
Clear Creek #2 0 in 8300 ft
Strawberry Divide 0 in 8400 ft
Gooseberry R.S. 0 in 7920 ft
Cascade Mountain 0 in 7768 ft

Earthquake Activity

City Distance Mag. Time & Date
No recent earthquake activity has been reported nearby.
Minimum magnitude displayed is 2.5.

Coastal Water Temperatures

Place Temperature
No Stations Reporting

Nearby Weather Stations

Station Location Temp. Heat Index Dew Point Humidity Wind Precip. Elev Updated Type
MesoWest EPHRAIM , Chester, UT 71 °F 77 °F 50 °F 48% WNW  at  1 mph 0.00 in / hr 5503 ft 9:00 AM MDT MADIS
MesoWest NEPHI , Nephi, UT 62 °F - - - North  at  - 0.00 in / hr 5088 ft 7:55 AM MDT MADIS
APRSWXNET Manti UT , Manti, UT 80 °F 80 °F 51 °F 37% WSW  at  1 mph 0.00 in / hr 5612 ft 9:21 AM MDT MADIS
MesoWest JUAB , Levan, UT 70 °F - - - North  at  - 0.00 in / hr 4949 ft 7:25 AM MDT MADIS

Show More Stations Show Fewer Stations